Time;durP1;ratioP1;P1;durP2;ratioP2;P2;SDS_P1;SDS_P2;PMS_P1;PMS_P2;Temp;Humidity;BMP_temperature;BMP_pressure;BME280_temperature;BME280_humidity;BME280_pressure;Samples;Min_cycle;Max_cycle;Signal;HPM_P1;HPM_P2
2023/11/15 00:01:55;;;;;;;;;;;;;;;;;;4957308;28;19953;-80
2023/11/15 00:04:22;;;;;;;;;;;;;;;;;;4960396;28;20288;-79
2023/11/15 00:06:49;;;;;;;;;;;;;;;;;;4962640;28;20383;-81
2023/11/15 00:09:16;;;;;;;;;;;;;;;;;;4943383;28;19933;-80
2023/11/15 00:11:42;;;;;;;;;;;;;;;;;;4969352;28;19926;-80
2023/11/15 00:14:09;;;;;;;;;;;;;;;;;;4944588;28;19938;-80
2023/11/15 00:16:36;;;;;;;;;;;;;;;;;;4937763;28;20352;-79
2023/11/15 00:19:07;;;;;;;;;;;;;;;;;;4947575;28;19927;-81
2023/11/15 00:21:34;;;;;;;;;;;;;;;;;;4964620;28;19927;-79
2023/11/15 00:24:00;;;;;;;;;;;;;;;;;;4958877;28;19931;-81
2023/11/15 00:26:29;;;;;;;;;;;;;;;;;;4958312;28;20018;-78
2023/11/15 00:28:57;;;;;;;;;;;;;;;;;;4958332;28;20013;-78
2023/11/15 00:31:24;;;;;;;;;;;;;;;;;;4957794;28;19974;-78
2023/11/15 00:33:50;;;;;;;;;;;;;;;;;;4971446;28;20017;-81
2023/11/15 00:36:19;;;;;;;;;;;;;;;;;;4954603;28;20414;-79
2023/11/15 00:38:46;;;;;;;;;;;;;;;;;;4931213;28;19931;-80
2023/11/15 00:41:12;;;;;;;;;;;;;;;;;;4959744;28;20371;-81
2023/11/15 00:43:39;;;;;;;;;;;;;;;;;;4962582;28;19937;-80
2023/11/15 00:46:05;;;;;;;;;;;;;;;;;;4945013;28;19931;-82
2023/11/15 00:48:32;;;;;;;;;;;;;;;;;;4966565;28;20384;-80
2023/11/15 00:50:58;;;;;;;;;;;;;;;;;;4957554;28;19926;-80
2023/11/15 00:53:25;;;;;;;;;;;;;;;;;;4951245;28;20413;-81
2023/11/15 00:55:51;;;;;;;;;;;;;;;;;;4948324;28;19973;-78
2023/11/15 00:58:17;;;;;;;;;;;;;;;;;;4956405;28;19927;-79
2023/11/15 01:00:49;;;;;;;;;;;;;;;;;;4957215;28;19927;-80
2023/11/15 01:03:18;;;;;;;;;;;;;;;;;;4951089;28;20018;-79
2023/11/15 01:05:45;;;;;;;;;;;;;;;;;;4954350;28;19980;-81
2023/11/15 01:08:11;;;;;;;;;;;;;;;;;;4949844;28;20380;-80
2023/11/15 01:10:38;;;;;;;;;;;;;;;;;;4941672;28;20005;-80
2023/11/15 01:13:05;;;;;;;;;;;;;;;;;;4972315;28;19945;-80
2023/11/15 01:15:31;;;;;;;;;;;;;;;;;;4946864;28;19974;-81
2023/11/15 01:17:58;;;;;;;;;;;;;;;;;;4956578;28;20425;-79
2023/11/15 01:20:25;;;;;;;;;;;;;;;;;;4958479;28;20556;-81
2023/11/15 01:22:51;;;;;;;;;;;;;;;;;;4955300;28;19981;-82
2023/11/15 01:25:20;;;;;;;;;;;;;;;;;;4956836;28;19938;-78
2023/11/15 01:27:46;;;;;;;;;;;;;;;;;;4962144;28;20037;-80
2023/11/15 01:30:14;;;;;;;;;;;;;;;;;;4960004;28;19927;-78
2023/11/15 01:32:40;;;;;;;;;;;;;;;;;;4959611;28;20372;-82
2023/11/15 01:35:07;;;;;;;;;;;;;;;;;;4944608;28;19931;-82
2023/11/15 01:37:34;;;;;;;;;;;;;;;;;;4952899;28;19974;-80
2023/11/15 01:40:01;;;;;;;;;;;;;;;;;;4956663;28;19935;-79
2023/11/15 01:42:27;;;;;;;;;;;;;;;;;;4948636;28;19974;-79
2023/11/15 01:44:54;;;;;;;;;;;;;;;;;;4942330;28;19926;-78
2023/11/15 01:47:20;;;;;;;;;;;;;;;;;;4938542;28;19927;-80
2023/11/15 01:49:47;;;;;;;;;;;;;;;;;;4942696;28;19927;-80
2023/11/15 01:52:14;;;;;;;;;;;;;;;;;;4962438;28;19952;-80
2023/11/15 01:54:40;;;;;;;;;;;;;;;;;;4943752;28;19933;-81
2023/11/15 01:57:06;;;;;;;;;;;;;;;;;;4957742;28;20032;-80
2023/11/15 01:59:33;;;;;;;;;;;;;;;;;;4958707;28;20021;-79
2023/11/15 02:01:59;;;;;;;;;;;;;;;;;;4957634;28;20380;-79
2023/11/15 02:04:26;;;;;;;;;;;;;;;;;;4959877;28;19937;-81
2023/11/15 02:14:32;;;;;;;;;;;;;;;;;;4899630;29;20002;-80
2023/11/15 02:16:59;;;;;;;;;;;;;;;;;;4869815;29;19928;-78
2023/11/15 02:19:27;;;;;;;;;;;;;;;;;;4876448;29;19983;-80
2023/11/15 02:21:53;;;;;;;;;;;;;;;;;;4883611;29;19928;-80
2023/11/15 02:24:20;;;;;;;;;;;;;;;;;;4891517;29;19928;-79
2023/11/15 02:26:46;;;;;;;;;;;;;;;;;;4894646;29;20436;-77
2023/11/15 02:29:13;;;;;;;;;;;;;;;;;;4883173;29;20340;-79
2023/11/15 02:31:39;;;;;;;;;;;;;;;;;;4879854;29;19927;-80
2023/11/15 02:34:06;;;;;;;;;;;;;;;;;;4882721;29;20022;-80
2023/11/15 02:36:33;;;;;;;;;;;;;;;;;;4897004;29;19928;-79
2023/11/15 02:38:59;;;;;;;;;;;;;;;;;;4941846;28;20009;-81
2023/11/15 02:41:26;;;;;;;;;;;;;;;;;;4958749;28;19930;-79
2023/11/15 02:43:52;;;;;;;;;;;;;;;;;;4960630;28;19930;-76
2023/11/15 02:46:23;;;;;;;;;;;;;;;;;;4956572;28;19933;-78
2023/11/15 02:48:49;;;;;;;;;;;;;;;;;;4935463;28;19931;-79
2023/11/15 02:51:15;;;;;;;;;;;;;;;;;;4963311;28;19930;-76
2023/11/15 02:53:42;;;;;;;;;;;;;;;;;;4963507;28;19937;-77
2023/11/15 02:56:10;;;;;;;;;;;;;;;;;;4934325;28;20539;-78
2023/11/15 02:58:36;;;;;;;;;;;;;;;;;;4936385;28;19927;-80
2023/11/15 03:01:03;;;;;;;;;;;;;;;;;;4967071;28;19968;-76
2023/11/15 03:03:29;;;;;;;;;;;;;;;;;;4961569;28;20025;-80
2023/11/15 03:05:56;;;;;;;;;;;;;;;;;;4967104;28;20307;-80
2023/11/15 03:08:22;;;;;;;;;;;;;;;;;;4949284;28;19926;-77
2023/11/15 03:10:49;;;;;;;;;;;;;;;;;;4966430;28;19926;-78
2023/11/15 03:13:15;;;;;;;;;;;;;;;;;;4956889;28;19931;-79
2023/11/15 03:15:41;;;;;;;;;;;;;;;;;;4942151;28;20280;-76
2023/11/15 03:18:09;;;;;;;;;;;;;;;;;;4960069;28;20264;-77
2023/11/15 03:20:36;;;;;;;;;;;;;;;;;;4963852;28;19972;-78
2023/11/15 03:23:03;;;;;;;;;;;;;;;;;;4946197;28;20387;-78
2023/11/15 03:25:29;;;;;;;;;;;;;;;;;;4961591;28;20336;-77
2023/11/15 03:27:56;;;;;;;;;;;;;;;;;;4961590;28;19930;-77
2023/11/15 03:30:23;;;;;;;;;;;;;;;;;;4963248;28;19965;-78
2023/11/15 03:32:49;;;;;;;;;;;;;;;;;;4962281;28;19933;-76
2023/11/15 03:35:16;;;;;;;;;;;;;;;;;;4950994;28;19930;-78
2023/11/15 03:37:43;;;;;;;;;;;;;;;;;;4951733;28;19953;-77
2023/11/15 03:40:09;;;;;;;;;;;;;;;;;;4945316;28;20410;-76
2023/11/15 03:42:36;;;;;;;;;;;;;;;;;;4960261;28;19936;-75
2023/11/15 03:45:04;;;;;;;;;;;;;;;;;;4962831;28;20025;-78
2023/11/15 03:47:31;;;;;;;;;;;;;;;;;;4967325;28;19936;-78
2023/11/15 03:49:57;;;;;;;;;;;;;;;;;;4939058;28;19966;-76
2023/11/15 03:52:24;;;;;;;;;;;;;;;;;;4944364;28;20364;-78
2023/11/15 03:54:50;;;;;;;;;;;;;;;;;;4957596;28;20320;-75
2023/11/15 03:57:17;;;;;;;;;;;;;;;;;;4962786;28;19930;-75
2023/11/15 03:59:43;;;;;;;;;;;;;;;;;;4956160;28;19930;-77
2023/11/15 04:02:09;;;;;;;;;;;;;;;;;;4952334;28;19927;-77
2023/11/15 04:04:36;;;;;;;;;;;;;;;;;;4954986;28;19930;-77
2023/11/15 04:07:03;;;;;;;;;;;;;;;;;;4956790;28;19934;-75
2023/11/15 04:09:30;;;;;;;;;;;;;;;;;;4958629;28;20017;-80
2023/11/15 04:11:56;;;;;;;;;;;;;;;;;;4924981;29;19927;-76
2023/11/15 04:14:24;;;;;;;;;;;;;;;;;;4969058;28;19978;-75
2023/11/15 04:16:51;;;;;;;;;;;;;;;;;;4959233;28;20037;-76
2023/11/15 04:19:21;;;;;;;;;;;;;;;;;;4947563;28;20438;-78
2023/11/15 04:21:47;;;;;;;;;;;;;;;;;;4957148;28;20371;-78
2023/11/15 04:24:22;;;;;;;;;;;;;;;;;;4952695;28;19931;-77
2023/11/15 04:26:49;;;;;;;;;;;;;;;;;;4961388;28;19926;-75
2023/11/15 04:29:16;;;;;;;;;;;;;;;;;;4949763;28;19982;-76
2023/11/15 04:31:42;;;;;;;;;;;;;;;;;;4955402;28;19949;-74
2023/11/15 04:34:09;;;;;;;;;;;;;;;;;;4953912;28;20300;-76
2023/11/15 04:36:35;;;;;;;;;;;;;;;;;;4952779;28;20045;-77
2023/11/15 04:39:06;;;;;;;;;;;;;;;;;;4962250;28;19982;-76
2023/11/15 04:41:34;;;;;;;;;;;;;;;;;;4959755;28;20028;-76
2023/11/15 04:44:00;;;;;;;;;;;;;;;;;;4956386;28;19927;-77
2023/11/15 04:46:26;;;;;;;;;;;;;;;;;;4951612;28;19933;-77
2023/11/15 04:48:53;;;;;;;;;;;;;;;;;;4943628;28;19981;-76
2023/11/15 04:51:19;;;;;;;;;;;;;;;;;;4959761;28;19934;-76
2023/11/15 04:53:46;;;;;;;;;;;;;;;;;;4956133;28;20615;-76
2023/11/15 04:56:12;;;;;;;;;;;;;;;;;;4953100;28;20008;-78
2023/11/15 04:58:41;;;;;;;;;;;;;;;;;;4966062;28;19926;-77
2023/11/15 05:01:08;;;;;;;;;;;;;;;;;;4950596;28;20017;-76
2023/11/15 05:03:34;;;;;;;;;;;;;;;;;;4956245;28;19927;-77
2023/11/15 05:06:02;;;;;;;;;;;;;;;;;;4942464;28;20450;-75
2023/11/15 05:08:28;;;;;;;;;;;;;;;;;;4958267;28;19926;-74
2023/11/15 05:10:55;;;;;;;;;;;;;;;;;;4962612;28;20354;-76
2023/11/15 05:13:21;;;;;;;;;;;;;;;;;;4957684;28;19933;-75
2023/11/15 05:15:48;;;;;;;;;;;;;;;;;;4950992;28;19934;-76
2023/11/15 05:18:15;;;;;;;;;;;;;;;;;;4962060;28;19926;-77
2023/11/15 05:20:43;;;;;;;;;;;;;;;;;;4944626;28;19926;-77
2023/11/15 05:23:10;;;;;;;;;;;;;;;;;;4948341;28;20435;-76
2023/11/15 05:25:37;;;;;;;;;;;;;;;;;;4965113;28;19926;-76
2023/11/15 05:28:05;;;;;;;;;;;;;;;;;;4960774;28;19933;-75
2023/11/15 05:30:31;;;;;;;;;;;;;;;;;;4958957;28;20022;-77
2023/11/15 05:32:58;;;;;;;;;;;;;;;;;;4956298;28;19946;-76
2023/11/15 05:35:24;;;;;;;;;;;;;;;;;;4951307;28;20115;-76
2023/11/15 05:37:51;;;;;;;;;;;;;;;;;;4954480;28;19926;-77
2023/11/15 05:40:18;;;;;;;;;;;;;;;;;;4960062;28;19926;-76
2023/11/15 05:42:44;;;;;;;;;;;;;;;;;;4952825;28;19930;-78
2023/11/15 05:45:11;;;;;;;;;;;;;;;;;;4947736;28;20322;-79
2023/11/15 05:47:40;;;;;;;;;;;;;;;;;;4941749;28;19934;-79
2023/11/15 05:50:10;;;;;;;;;;;;;;;;;;4942504;28;20033;-76
2023/11/15 05:52:39;;;;;;;;;;;;;;;;;;4945843;28;20029;-79
2023/11/15 05:55:06;;;;;;;;;;;;;;;;;;4961532;28;19930;-77
2023/11/15 05:57:32;;;;;;;;;;;;;;;;;;4960333;28;19961;-75
2023/11/15 05:59:59;;;;;;;;;;;;;;;;;;4959336;28;19930;-76
2023/11/15 06:02:25;;;;;;;;;;;;;;;;;;4939378;28;20284;-77
2023/11/15 06:04:52;;;;;;;;;;;;;;;;;;4958074;28;19926;-76
2023/11/15 06:07:19;;;;;;;;;;;;;;;;;;4953593;28;19931;-77
2023/11/15 06:09:46;;;;;;;;;;;;;;;;;;4949123;28;19933;-76
2023/11/15 06:12:12;;;;;;;;;;;;;;;;;;4947669;28;20037;-77
2023/11/15 06:14:39;;;;;;;;;;;;;;;;;;4969564;28;20017;-77
2023/11/15 06:17:05;;;;;;;;;;;;;;;;;;4960333;28;19969;-76
2023/11/15 06:19:31;;;;;;;;;;;;;;;;;;4963482;28;19977;-76
2023/11/15 06:21:58;;;;;;;;;;;;;;;;;;4958181;28;19930;-77
2023/11/15 06:24:24;;;;;;;;;;;;;;;;;;4960856;28;19931;-74
2023/11/15 06:26:52;;;;;;;;;;;;;;;;;;4964094;28;20280;-77
2023/11/15 06:29:22;;;;;;;;;;;;;;;;;;4956898;28;19937;-76
2023/11/15 06:31:48;;;;;;;;;;;;;;;;;;4955800;28;19926;-76
2023/11/15 06:34:15;;;;;;;;;;;;;;;;;;4959906;28;19981;-76
2023/11/15 06:36:42;;;;;;;;;;;;;;;;;;4964673;28;19941;-76
2023/11/15 06:39:12;;;;;;;;;;;;;;;;;;4967948;28;20299;-75
2023/11/15 06:41:38;;;;;;;;;;;;;;;;;;4946210;28;19926;-76
2023/11/15 06:44:05;;;;;;;;;;;;;;;;;;4958547;28;19966;-78
2023/11/15 06:46:32;;;;;;;;;;;;;;;;;;4960668;28;19930;-76
2023/11/15 06:49:01;;;;;;;;;;;;;;;;;;4965383;28;19930;-75
2023/11/15 06:51:28;;;;;;;;;;;;;;;;;;4957867;28;19926;-74
2023/11/15 06:53:57;;;;;;;;;;;;;;;;;;4955943;28;19961;-76
2023/11/15 06:56:23;;;;;;;;;;;;;;;;;;4959193;28;19926;-76
2023/11/15 06:58:50;;;;;;;;;;;;;;;;;;4958712;28;19937;-75
2023/11/15 07:01:16;;;;;;;;;;;;;;;;;;4962900;28;20021;-75
2023/11/15 07:03:46;;;;;;;;;;;;;;;;;;4951787;28;19993;-77
2023/11/15 07:06:16;;;;;;;;;;;;;;;;;;4945268;29;20457;-75
2023/11/15 07:08:42;;;;;;;;;;;;;;;;;;4961416;28;20303;-75
2023/11/15 07:11:09;;;;;;;;;;;;;;;;;;4961282;28;19953;-76
2023/11/15 07:13:35;;;;;;;;;;;;;;;;;;4960631;28;19965;-76
2023/11/15 07:16:04;;;;;;;;;;;;;;;;;;4949429;28;19927;-74
2023/11/15 07:18:31;;;;;;;;;;;;;;;;;;4934593;28;19978;-75
2023/11/15 07:20:58;;;;;;;;;;;;;;;;;;4942262;28;19937;-75
2023/11/15 07:23:25;;;;;;;;;;;;;;;;;;4964021;28;19929;-73
2023/11/15 07:25:52;;;;;;;;;;;;;;;;;;4951579;28;20356;-75
2023/11/15 07:28:19;;;;;;;;;;;;;;;;;;4948797;28;19926;-77
2023/11/15 07:30:46;;;;;;;;;;;;;;;;;;4962562;28;20428;-76
2023/11/15 07:33:14;;;;;;;;;;;;;;;;;;4939955;28;20020;-75
2023/11/15 07:35:40;;;;;;;;;;;;;;;;;;4971264;28;19934;-73
2023/11/15 07:38:10;;;;;;;;;;;;;;;;;;4958106;28;19930;-75
2023/11/15 07:40:37;;;;;;;;;;;;;;;;;;4955407;28;19930;-75
2023/11/15 07:43:05;;;;;;;;;;;;;;;;;;4941250;28;19934;-75
2023/11/15 07:45:35;;;;;;;;;;;;;;;;;;4946984;28;19931;-75
2023/11/15 07:48:01;;;;;;;;;;;;;;;;;;4947437;28;20406;-76
2023/11/15 07:50:28;;;;;;;;;;;;;;;;;;4968445;28;19957;-76
2023/11/15 07:52:54;;;;;;;;;;;;;;;;;;4965784;28;19952;-76
2023/11/15 07:55:21;;;;;;;;;;;;;;;;;;4962936;28;20339;-74
2023/11/15 07:57:48;;;;;;;;;;;;;;;;;;4961473;28;19926;-74
2023/11/15 08:00:15;;;;;;;;;;;;;;;;;;4969094;28;19957;-75
2023/11/15 08:02:42;;;;;;;;;;;;;;;;;;4935714;28;19978;-76
2023/11/15 08:05:09;;;;;;;;;;;;;;;;;;4961463;28;19929;-77
2023/11/15 08:07:37;;;;;;;;;;;;;;;;;;4954842;28;20028;-76
2023/11/15 08:10:05;;;;;;;;;;;;;;;;;;4956796;28;20029;-75
2023/11/15 08:12:35;;;;;;;;;;;;;;;;;;4951685;28;19930;-75
2023/11/15 08:15:02;;;;;;;;;;;;;;;;;;4930050;28;19930;-76
2023/11/15 08:17:29;;;;;;;;;;;;;;;;;;4936872;28;20397;-75
2023/11/15 08:19:56;;;;;;;;;;;;;;;;;;4946204;28;20453;-75
2023/11/15 08:22:22;;;;;;;;;;;;;;;;;;4958731;28;19935;-76
2023/11/15 08:24:49;;;;;;;;;;;;;;;;;;4960468;28;19926;-76
2023/11/15 08:27:15;;;;;;;;;;;;;;;;;;4958865;28;20303;-76
2023/11/15 08:29:42;;;;;;;;;;;;;;;;;;4959341;28;19932;-74
2023/11/15 08:32:12;;;;;;;;;;;;;;;;;;4960010;28;20017;-75
2023/11/15 08:34:38;;;;;;;;;;;;;;;;;;4956093;28;20399;-77
2023/11/15 08:37:05;;;;;;;;;;;;;;;;;;4954350;28;19930;-76
2023/11/15 08:39:33;;;;;;;;;;;;;;;;;;4948597;28;20033;-76
2023/11/15 08:42:00;;;;;;;;;;;;;;;;;;4941040;28;19981;-76
2023/11/15 08:44:26;;;;;;;;;;;;;;;;;;4961534;28;19957;-74
2023/11/15 08:46:53;;;;;;;;;;;;;;;;;;4959062;28;19926;-75
2023/11/15 08:49:20;;;;;;;;;;;;;;;;;;4964492;28;20363;-74
2023/11/15 08:51:50;;;;;;;;;;;;;;;;;;4943944;28;19982;-76
2023/11/15 08:54:16;;;;;;;;;;;;;;;;;;4944427;28;19953;-76
2023/11/15 08:56:43;;;;;;;;;;;;;;;;;;4932915;28;19952;-76
2023/11/15 08:59:13;;;;;;;;;;;;;;;;;;4948828;28;19930;-77
2023/11/15 09:01:44;;;;;;;;;;;;;;;;;;4958457;28;19930;-77
2023/11/15 09:04:12;;;;;;;;;;;;;;;;;;4958605;28;20352;-76
2023/11/15 09:06:39;;;;;;;;;;;;;;;;;;4950887;28;19931;-75
2023/11/15 09:09:07;;;;;;;;;;;;;;;;;;4960881;28;20032;-73
2023/11/15 09:11:34;;;;;;;;;;;;;;;;;;4961085;28;19930;-77
2023/11/15 09:14:00;;;;;;;;;;;;;;;;;;4962348;28;19931;-74
2023/11/15 09:16:27;;;;;;;;;;;;;;;;;;4960237;28;19945;-74
2023/11/15 09:18:58;;;;;;;;;;;;;;;;;;4960592;28;19976;-75
2023/11/15 09:21:25;;;;;;;;;;;;;;;;;;4960125;28;19926;-76
2023/11/15 09:23:52;;;;;;;;;;;;;;;;;;4952661;28;20654;-76
2023/11/15 09:26:19;;;;;;;;;;;;;;;;;;4932257;28;19930;-75
2023/11/15 09:28:46;;;;;;;;;;;;;;;;;;4961192;28;20033;-75
2023/11/15 09:31:13;;;;;;;;;;;;;;;;;;4962056;28;19932;-79
2023/11/15 09:33:39;;;;;;;;;;;;;;;;;;4951240;28;19930;-75
2023/11/15 09:36:06;;;;;;;;;;;;;;;;;;4947094;28;19934;-76
2023/11/15 09:38:33;;;;;;;;;;;;;;;;;;4951775;28;19926;-77
2023/11/15 09:40:59;;;;;;;;;;;;;;;;;;4961702;28;19992;-76
2023/11/15 09:43:26;;;;;;;;;;;;;;;;;;4953830;28;20400;-76
2023/11/15 09:45:54;;;;;;;;;;;;;;;;;;4946820;28;20336;-78
2023/11/15 09:48:21;;;;;;;;;;;;;;;;;;4948769;28;19927;-75
2023/11/15 09:50:51;;;;;;;;;;;;;;;;;;4959676;28;19930;-75
2023/11/15 09:53:17;;;;;;;;;;;;;;;;;;4939156;28;19927;-75
2023/11/15 09:55:44;;;;;;;;;;;;;;;;;;4956360;28;19926;-77
2023/11/15 09:58:12;;;;;;;;;;;;;;;;;;4948679;28;19941;-77
2023/11/15 10:00:39;;;;;;;;;;;;;;;;;;4937712;28;19930;-76
2023/11/15 10:03:05;;;;;;;;;;;;;;;;;;4948028;28;19927;-76
2023/11/15 10:05:32;;;;;;;;;;;;;;;;;;4968932;28;20276;-76
2023/11/15 10:07:59;;;;;;;;;;;;;;;;;;4937883;28;20021;-76
2023/11/15 10:10:25;;;;;;;;;;;;;;;;;;4947556;28;20024;-75
2023/11/15 10:12:53;;;;;;;;;;;;;;;;;;4959660;28;19926;-76
2023/11/15 10:15:20;;;;;;;;;;;;;;;;;;4962066;28;19927;-76
2023/11/15 10:17:48;;;;;;;;;;;;;;;;;;4953846;28;19930;-75
2023/11/15 10:20:15;;;;;;;;;;;;;;;;;;4957688;28;19930;-75
2023/11/15 10:22:43;;;;;;;;;;;;;;;;;;4969322;28;20034;-74
2023/11/15 10:25:13;;;;;;;;;;;;;;;;;;4953628;28;19926;-75
2023/11/15 10:27:40;;;;;;;;;;;;;;;;;;4941484;28;20424;-76
2023/11/15 10:30:10;;;;;;;;;;;;;;;;;;4944853;28;19981;-77
2023/11/15 10:32:37;;;;;;;;;;;;;;;;;;4960616;28;19934;-75
2023/11/15 10:35:05;;;;;;;;;;;;;;;;;;4953580;28;19972;-75
2023/11/15 10:37:32;;;;;;;;;;;;;;;;;;4958163;28;20038;-78
2023/11/15 10:39:59;;;;;;;;;;;;;;;;;;4955705;28;20458;-79
2023/11/15 10:42:28;;;;;;;;;;;;;;;;;;4941243;28;20030;-78
2023/11/15 10:44:58;;;;;;;;;;;;;;;;;;4945480;28;19977;-76
2023/11/15 10:47:24;;;;;;;;;;;;;;;;;;4953952;28;19930;-76
2023/11/15 10:49:50;;;;;;;;;;;;;;;;;;4943325;28;20021;-76
2023/11/15 10:52:17;;;;;;;;;;;;;;;;;;4961006;28;20025;-76
2023/11/15 10:54:43;;;;;;;;;;;;;;;;;;4955708;28;19926;-77
2023/11/15 10:57:10;;;;;;;;;;;;;;;;;;4956298;28;20040;-76
2023/11/15 10:59:36;;;;;;;;;;;;;;;;;;4958170;28;20446;-77
2023/11/15 11:02:05;;;;;;;;;;;;;;;;;;4958485;28;19930;-76
2023/11/15 11:04:31;;;;;;;;;;;;;;;;;;4955830;28;19926;-74
2023/11/15 11:07:02;;;;;;;;;;;;;;;;;;4946023;28;20017;-76
2023/11/15 11:09:29;;;;;;;;;;;;;;;;;;4945901;28;20355;-75
2023/11/15 11:11:56;;;;;;;;;;;;;;;;;;4954695;28;20485;-79
2023/11/15 11:14:26;;;;;;;;;;;;;;;;;;4953751;28;20288;-76
2023/11/15 11:16:53;;;;;;;;;;;;;;;;;;4946613;28;19926;-75
2023/11/15 11:19:24;;;;;;;;;;;;;;;;;;4951558;28;20328;-75
2023/11/15 11:21:50;;;;;;;;;;;;;;;;;;4959778;28;19934;-76
2023/11/15 11:24:18;;;;;;;;;;;;;;;;;;4949250;28;20376;-75
2023/11/15 11:26:47;;;;;;;;;;;;;;;;;;4946290;28;19989;-75
2023/11/15 11:29:13;;;;;;;;;;;;;;;;;;4981971;28;19946;-76
2023/11/15 11:31:40;;;;;;;;;;;;;;;;;;4956462;28;19927;-74
2023/11/15 11:34:08;;;;;;;;;;;;;;;;;;4937145;28;19974;-76
2023/11/15 11:36:36;;;;;;;;;;;;;;;;;;4940747;28;20030;-76
2023/11/15 11:39:05;;;;;;;;;;;;;;;;;;4946898;28;19930;-77
2023/11/15 11:41:31;;;;;;;;;;;;;;;;;;4958813;28;19931;-75
2023/11/15 11:43:59;;;;;;;;;;;;;;;;;;4961834;28;19941;-75
2023/11/15 11:46:25;;;;;;;;;;;;;;;;;;4949395;28;19973;-77
2023/11/15 11:48:52;;;;;;;;;;;;;;;;;;4965875;28;19930;-76
2023/11/15 11:51:18;;;;;;;;;;;;;;;;;;4957845;28;20005;-77
2023/11/15 11:53:46;;;;;;;;;;;;;;;;;;4962809;28;20386;-75
2023/11/15 11:56:13;;;;;;;;;;;;;;;;;;4938885;28;20727;-76
2023/11/15 11:58:40;;;;;;;;;;;;;;;;;;4962485;28;19933;-76
2023/11/15 12:01:06;;;;;;;;;;;;;;;;;;4966177;28;20046;-74
2023/11/15 12:03:34;;;;;;;;;;;;;;;;;;4965148;28;20334;-76
2023/11/15 12:06:00;;;;;;;;;;;;;;;;;;4955125;28;19967;-75
2023/11/15 12:08:27;;;;;;;;;;;;;;;;;;4961526;28;19927;-76
2023/11/15 12:10:58;;;;;;;;;;;;;;;;;;4954297;28;19997;-77
2023/11/15 12:13:24;;;;;;;;;;;;;;;;;;4969148;28;19934;-76
2023/11/15 12:15:51;;;;;;;;;;;;;;;;;;4964270;28;19930;-73
2023/11/15 12:18:17;;;;;;;;;;;;;;;;;;4969313;28;19965;-76
2023/11/15 12:20:46;;;;;;;;;;;;;;;;;;4972460;28;20319;-75
2023/11/15 12:23:13;;;;;;;;;;;;;;;;;;4961136;28;19930;-76
2023/11/15 12:25:39;;;;;;;;;;;;;;;;;;4965391;28;20282;-76
2023/11/15 12:28:06;;;;;;;;;;;;;;;;;;4937858;28;19927;-76
2023/11/15 12:30:32;;;;;;;;;;;;;;;;;;4938386;28;19926;-77
2023/11/15 12:33:02;;;;;;;;;;;;;;;;;;4946355;28;19931;-76
2023/11/15 12:35:28;;;;;;;;;;;;;;;;;;4960659;28;19931;-76
2023/11/15 12:37:56;;;;;;;;;;;;;;;;;;4950358;28;19930;-76
2023/11/15 12:40:22;;;;;;;;;;;;;;;;;;4960626;28;20486;-77
2023/11/15 12:42:51;;;;;;;;;;;;;;;;;;4955125;28;19927;-76
2023/11/15 12:45:17;;;;;;;;;;;;;;;;;;4962625;28;20015;-75
2023/11/15 12:47:44;;;;;;;;;;;;;;;;;;4955153;28;19976;-77
2023/11/15 12:50:10;;;;;;;;;;;;;;;;;;4954678;28;19933;-75
2023/11/15 12:52:37;;;;;;;;;;;;;;;;;;4955768;28;19973;-74
2023/11/15 12:55:10;;;;;;;;;;;;;;;;;;4934146;28;20362;-76
2023/11/15 12:57:36;;;;;;;;;;;;;;;;;;4945634;28;20014;-73
2023/11/15 13:00:06;;;;;;;;;;;;;;;;;;4968786;28;19958;-76
2023/11/15 13:02:36;;;;;;;;;;;;;;;;;;4954133;28;19958;-76
2023/11/15 13:05:05;;;;;;;;;;;;;;;;;;4953696;28;20017;-75
2023/11/15 13:07:32;;;;;;;;;;;;;;;;;;4944795;28;19961;-75
2023/11/15 13:09:58;;;;;;;;;;;;;;;;;;4970520;28;19934;-75
2023/11/15 13:12:25;;;;;;;;;;;;;;;;;;4959041;28;20017;-77
2023/11/15 13:14:52;;;;;;;;;;;;;;;;;;4950662;28;19926;-75
2023/11/15 13:17:19;;;;;;;;;;;;;;;;;;4939910;28;20021;-76
2023/11/15 13:19:45;;;;;;;;;;;;;;;;;;4956755;28;20466;-76
2023/11/15 13:22:12;;;;;;;;;;;;;;;;;;4960526;28;19930;-76
2023/11/15 13:24:39;;;;;;;;;;;;;;;;;;4955105;28;19930;-75
2023/11/15 13:27:05;;;;;;;;;;;;;;;;;;4953303;28;19934;-76
2023/11/15 13:29:32;;;;;;;;;;;;;;;;;;4945005;28;19930;-77
2023/11/15 13:31:59;;;;;;;;;;;;;;;;;;4931428;28;19931;-76
2023/11/15 13:34:25;;;;;;;;;;;;;;;;;;4964050;28;20544;-75
2023/11/15 13:36:52;;;;;;;;;;;;;;;;;;4950864;28;20367;-76
2023/11/15 13:39:18;;;;;;;;;;;;;;;;;;4960237;28;19939;-76
2023/11/15 13:41:45;;;;;;;;;;;;;;;;;;4940638;28;19931;-76
2023/11/15 13:44:12;;;;;;;;;;;;;;;;;;4961207;28;19926;-76
2023/11/15 13:46:38;;;;;;;;;;;;;;;;;;4954520;28;19949;-75
2023/11/15 13:49:05;;;;;;;;;;;;;;;;;;4957852;28;20299;-75
2023/11/15 13:51:32;;;;;;;;;;;;;;;;;;4937057;28;20292;-76
2023/11/15 13:53:59;;;;;;;;;;;;;;;;;;4959608;28;19927;-76
2023/11/15 13:56:26;;;;;;;;;;;;;;;;;;4961210;28;19932;-75
2023/11/15 13:58:52;;;;;;;;;;;;;;;;;;4959574;28;19957;-74
2023/11/15 14:01:19;;;;;;;;;;;;;;;;;;4941670;28;20343;-76
2023/11/15 14:03:45;;;;;;;;;;;;;;;;;;4956717;28;20407;-76
2023/11/15 14:06:12;;;;;;;;;;;;;;;;;;4959140;28;20524;-73
2023/11/15 14:08:40;;;;;;;;;;;;;;;;;;4961501;28;19954;-76
2023/11/15 14:11:12;;;;;;;;;;;;;;;;;;4949796;28;19941;-75
2023/11/15 14:13:41;;;;;;;;;;;;;;;;;;4957099;28;19932;-76
2023/11/15 14:16:08;;;;;;;;;;;;;;;;;;4955841;28;19930;-76
2023/11/15 14:18:34;;;;;;;;;;;;;;;;;;4958701;28;19937;-75
2023/11/15 14:21:02;;;;;;;;;;;;;;;;;;4955654;28;19927;-75
2023/11/15 14:23:28;;;;;;;;;;;;;;;;;;4950104;28;19931;-76
2023/11/15 14:25:56;;;;;;;;;;;;;;;;;;4949208;28;20010;-76
2023/11/15 14:28:23;;;;;;;;;;;;;;;;;;4956567;28;19953;-75
2023/11/15 14:30:51;;;;;;;;;;;;;;;;;;4953427;28;19931;-76
2023/11/15 14:33:18;;;;;;;;;;;;;;;;;;4960415;28;19934;-76
2023/11/15 14:35:45;;;;;;;;;;;;;;;;;;4948498;28;19926;-76
2023/11/15 14:38:11;;;;;;;;;;;;;;;;;;4941053;28;19931;-75
2023/11/15 14:40:40;;;;;;;;;;;;;;;;;;4928390;28;20036;-75
2023/11/15 14:43:08;;;;;;;;;;;;;;;;;;4955373;28;19936;-75
2023/11/15 14:45:35;;;;;;;;;;;;;;;;;;4928183;28;19930;-73
2023/11/15 14:48:01;;;;;;;;;;;;;;;;;;4953572;28;20360;-73
2023/11/15 14:50:29;;;;;;;;;;;;;;;;;;4951513;28;20030;-76
2023/11/15 14:53:07;;;;;;;;;;;;;;;;;;4962146;28;20018;-75
2023/11/15 14:55:34;;;;;;;;;;;;;;;;;;4963416;28;19954;-75
2023/11/15 14:58:00;;;;;;;;;;;;;;;;;;4949643;28;20026;-76
2023/11/15 15:00:29;;;;;;;;;;;;;;;;;;4952016;28;19933;-75
2023/11/15 15:02:57;;;;;;;;;;;;;;;;;;4962033;28;19926;-76
2023/11/15 15:05:23;;;;;;;;;;;;;;;;;;4966720;28;20017;-75
2023/11/15 15:07:50;;;;;;;;;;;;;;;;;;4954769;28;19980;-76
2023/11/15 15:10:17;;;;;;;;;;;;;;;;;;4955300;28;20350;-73
2023/11/15 15:12:43;;;;;;;;;;;;;;;;;;4964003;28;20291;-75
2023/11/15 15:15:21;;;;;;;;;;;;;;;;;;4959627;28;19961;-76
2023/11/15 15:17:47;;;;;;;;;;;;;;;;;;4956497;28;19958;-76
2023/11/15 15:20:23;;;;;;;;;;;;;;;;;;4960415;28;20029;-77
2023/11/15 15:22:51;;;;;;;;;;;;;;;;;;4957838;28;19978;-77
2023/11/15 15:25:18;;;;;;;;;;;;;;;;;;4952588;28;19927;-75
2023/11/15 15:27:44;;;;;;;;;;;;;;;;;;4941978;28;20277;-76
2023/11/15 15:30:16;;;;;;;;;;;;;;;;;;4965126;28;19930;-76
2023/11/15 15:32:43;;;;;;;;;;;;;;;;;;4930431;28;19978;-77
2023/11/15 15:35:12;;;;;;;;;;;;;;;;;;4943348;28;19926;-78
2023/11/15 15:37:39;;;;;;;;;;;;;;;;;;4944205;28;19927;-75
2023/11/15 15:40:06;;;;;;;;;;;;;;;;;;4959606;28;19931;-75
2023/11/15 15:42:32;;;;;;;;;;;;;;;;;;4951397;28;20317;-76
2023/11/15 15:44:59;;;;;;;;;;;;;;;;;;4961726;28;19930;-75
2023/11/15 15:47:26;;;;;;;;;;;;;;;;;;4943382;28;19926;-76
2023/11/15 15:49:54;;;;;;;;;;;;;;;;;;4945366;28;20374;-75
2023/11/15 15:52:22;;;;;;;;;;;;;;;;;;4954993;28;19930;-75
2023/11/15 15:54:48;;;;;;;;;;;;;;;;;;4961212;28;19930;-76
2023/11/15 15:57:15;;;;;;;;;;;;;;;;;;4958962;28;19927;-75
2023/11/15 15:59:42;;;;;;;;;;;;;;;;;;4946545;28;19934;-75
2023/11/15 16:02:09;;;;;;;;;;;;;;;;;;4948603;28;19966;-75
2023/11/15 16:04:40;;;;;;;;;;;;;;;;;;4939124;28;20030;-76
2023/11/15 16:07:07;;;;;;;;;;;;;;;;;;4945362;28;19927;-76
2023/11/15 16:09:34;;;;;;;;;;;;;;;;;;4936549;29;20736;-75
2023/11/15 16:12:00;;;;;;;;;;;;;;;;;;4955333;28;19927;-75
2023/11/15 16:14:27;;;;;;;;;;;;;;;;;;4965044;28;20043;-75
2023/11/15 16:16:53;;;;;;;;;;;;;;;;;;4965810;28;19937;-76
2023/11/15 16:19:20;;;;;;;;;;;;;;;;;;4941558;28;20216;-75
2023/11/15 16:21:46;;;;;;;;;;;;;;;;;;4963399;28;19977;-74
2023/11/15 16:24:13;;;;;;;;;;;;;;;;;;4963676;28;19933;-75
2023/11/15 16:26:39;;;;;;;;;;;;;;;;;;4958156;28;20384;-75
2023/11/15 16:29:14;;;;;;;;;;;;;;;;;;4960735;28;20418;-73
2023/11/15 16:31:41;;;;;;;;;;;;;;;;;;4957944;28;20446;-76
2023/11/15 16:34:07;;;;;;;;;;;;;;;;;;4959447;28;20395;-76
2023/11/15 16:36:36;;;;;;;;;;;;;;;;;;4957091;28;19946;-76
2023/11/15 16:39:04;;;;;;;;;;;;;;;;;;4963111;28;20433;-75
2023/11/15 16:41:30;;;;;;;;;;;;;;;;;;4942343;28;19973;-75
2023/11/15 16:43:57;;;;;;;;;;;;;;;;;;4957669;28;19958;-74
2023/11/15 16:46:23;;;;;;;;;;;;;;;;;;4964080;28;19930;-74
2023/11/15 16:48:50;;;;;;;;;;;;;;;;;;4953972;28;19997;-75
2023/11/15 16:51:17;;;;;;;;;;;;;;;;;;4946748;28;19974;-76
2023/11/15 16:53:43;;;;;;;;;;;;;;;;;;4972046;28;19930;-75